Kendallville, Iowa
Current Conditions -  °F | °C
As of 4:35 PM on Monday 20 Oct 2014 (Local Time) from KFKA Reporting Station
Clear Clear  
Wind Chill: 60°   Ceiling: Unl
Heat Index: 60°   Visibility: 10mi
Dew Point: 41°   Wind: 13mph
Humidity: 50%   Direction: 320°NW
Pressure: 29.98"   Gusts: 18mph
Location:  43.363°N, 92.1685°W
Report Text: KFKA 202135Z AUTO 32011G16KT 10SM CLR 16/05 A2998 RMK AO2 T01550052
Loading
Personal Weather Stations






























Interactive Weather Map
Tropical Storm Tracking
New forecast layout! Learn more

10-Day Weather Forecast

Advertisements
Track Severe Weather on mobile